createdAt,value
2024-01-22T00:00:33.482Z,57799.06
2024-01-22T00:03:01.688Z,57799.06
2024-01-22T00:05:28.396Z,57846.53
2024-01-22T00:07:56.223Z,57827.94
2024-01-22T00:10:22.866Z,57815.56
2024-01-22T00:12:49.647Z,57867.16
2024-01-22T00:15:17.528Z,57846.53
2024-01-22T00:17:46.526Z,57856.84
2024-01-22T00:20:13.290Z,57832.09
2024-01-22T00:22:39.961Z,57865.09
2024-01-22T00:25:13.016Z,57869.22
2024-01-22T00:27:39.787Z,57854.78
2024-01-22T00:30:12.279Z,57865.09
2024-01-22T00:32:41.254Z,57852.72
2024-01-22T00:35:08.549Z,57838.28
2024-01-22T00:37:36.400Z,57848.59
2024-01-22T00:40:10.868Z,57788.75
2024-01-22T00:42:37.854Z,57858.91
2024-01-22T00:45:14.867Z,57803.19
2024-01-22T00:47:41.663Z,57842.41
2024-01-22T00:50:08.737Z,57834.16
2024-01-22T00:52:35.522Z,57854.78
2024-01-22T00:55:03.664Z,57827.94
2024-01-22T00:57:31.364Z,57813.50
2024-01-22T00:59:58.086Z,57823.81
2024-01-22T01:02:25.081Z,57821.75
2024-01-22T01:04:51.952Z,57815.56
2024-01-22T01:07:19.686Z,57875.41
2024-01-22T01:09:46.367Z,57840.34
2024-01-22T01:12:13.326Z,57844.47
2024-01-22T01:14:40.171Z,57879.53
2024-01-22T01:17:09.321Z,57832.09
2024-01-22T01:19:37.209Z,57858.91
2024-01-22T01:22:15.061Z,57881.59
2024-01-22T01:24:51.809Z,57865.09
2024-01-22T01:27:18.946Z,57848.59
2024-01-22T01:29:54.307Z,57856.84
2024-01-22T01:32:21.291Z,57871.28
2024-01-22T01:34:48.155Z,57856.84
2024-01-22T01:37:14.816Z,57867.16
2024-01-22T01:39:41.850Z,57799.06
2024-01-22T01:42:08.803Z,57813.50
2024-01-22T01:44:39.718Z,57799.06
2024-01-22T01:47:06.807Z,57774.31
2024-01-22T01:49:33.490Z,57770.19
2024-01-22T01:52:03.723Z,57739.22
2024-01-22T01:54:30.513Z,57739.22
2024-01-22T01:56:59.315Z,57743.34
2024-01-22T01:59:28.048Z,57712.41
2024-01-22T02:01:54.903Z,57735.09
2024-01-22T02:04:21.578Z,57724.78
2024-01-22T02:06:48.173Z,57722.72
2024-01-22T02:09:14.990Z,57739.22
2024-01-22T02:11:41.804Z,57788.75
2024-01-22T02:14:08.400Z,57780.50
2024-01-22T02:16:35.089Z,57792.88
2024-01-22T02:19:05.903Z,57799.06
2024-01-22T02:21:33.031Z,57799.06
2024-01-22T02:23:59.877Z,57840.34
2024-01-22T02:26:26.509Z,57877.47
2024-01-22T02:28:53.188Z,57858.91
2024-01-22T02:31:19.933Z,57844.47
2024-01-22T02:33:46.774Z,57885.72
2024-01-22T02:36:13.739Z,57863.03
2024-01-22T02:38:42.448Z,57941.44
2024-01-22T02:41:11.103Z,57912.56
2024-01-22T02:43:44.413Z,57904.31
2024-01-22T02:46:11.594Z,57914.63
2024-01-22T02:48:38.325Z,57883.66
2024-01-22T02:51:11.929Z,57927.00
2024-01-22T02:53:38.930Z,57970.31
2024-01-22T02:56:06.080Z,57990.97
2024-01-22T02:58:32.807Z,57972.38
2024-01-22T03:00:59.584Z,57976.50
2024-01-22T03:03:26.494Z,57972.38
2024-01-22T03:05:59.890Z,57986.84
2024-01-22T03:08:29.875Z,57964.13
2024-01-22T03:10:57.121Z,57968.25
2024-01-22T03:13:25.114Z,57947.63
2024-01-22T03:15:52.948Z,57982.72
2024-01-22T03:18:25.273Z,57937.31
2024-01-22T03:20:52.014Z,57953.81
2024-01-22T03:23:18.950Z,57970.31
2024-01-22T03:25:45.720Z,57968.25
2024-01-22T03:28:12.598Z,57947.63
2024-01-22T03:30:39.257Z,57931.13
2024-01-22T03:33:06.138Z,57953.81
2024-01-22T03:35:32.853Z,57974.44
2024-01-22T03:37:59.600Z,57976.50
2024-01-22T03:40:26.521Z,57993.03
2024-01-22T03:42:57.243Z,58003.34
2024-01-22T03:45:25.503Z,57980.66
2024-01-22T03:47:56.302Z,57984.78
2024-01-22T03:50:23.066Z,57945.56
2024-01-22T03:52:50.941Z,57980.66
2024-01-22T03:55:25.598Z,58001.28
2024-01-22T03:57:52.449Z,58034.28
2024-01-22T04:00:19.379Z,58015.72
2024-01-22T04:02:46.544Z,58009.53
2024-01-22T04:05:13.382Z,58009.53
2024-01-22T04:07:42.228Z,57993.03
2024-01-22T04:10:18.333Z,58001.28
2024-01-22T04:12:48.207Z,57988.91
2024-01-22T04:15:16.200Z,58011.59
2024-01-22T04:17:43.676Z,58023.97
2024-01-22T04:20:10.967Z,58017.78
2024-01-22T04:22:37.728Z,58013.66
2024-01-22T04:25:04.963Z,58034.28
2024-01-22T04:27:31.624Z,58028.09
2024-01-22T04:29:58.333Z,58026.03
2024-01-22T04:32:29.175Z,58034.28
2024-01-22T04:34:55.948Z,57986.84
2024-01-22T04:37:22.801Z,58032.22
2024-01-22T04:39:49.542Z,58034.28
2024-01-22T04:42:21.661Z,58038.41
2024-01-22T04:44:48.484Z,58030.16
2024-01-22T04:47:15.229Z,58057.00
2024-01-22T04:49:41.961Z,58030.16
2024-01-22T04:52:09.710Z,58028.09
2024-01-22T04:54:45.228Z,58038.41
2024-01-22T04:57:12.019Z,58030.16
2024-01-22T04:59:40.797Z,58013.66
2024-01-22T05:02:10.416Z,58038.41
2024-01-22T05:04:40.170Z,58026.03
2024-01-22T05:07:06.838Z,58038.41
2024-01-22T05:09:33.745Z,58038.41
2024-01-22T05:12:01.067Z,58017.78
2024-01-22T05:14:28.922Z,58023.97
2024-01-22T05:17:00.699Z,58013.66
2024-01-22T05:19:33.640Z,58030.16
2024-01-22T05:22:07.829Z,58040.47
2024-01-22T05:24:35.557Z,58030.16
2024-01-22T05:27:05.931Z,58017.78
2024-01-22T05:29:37.905Z,58052.88
2024-01-22T05:32:08.185Z,58046.66
2024-01-22T05:34:39.099Z,58052.88
2024-01-22T05:37:08.975Z,58057.00
2024-01-22T05:39:38.995Z,58023.97
2024-01-22T05:42:06.307Z,58009.53
2024-01-22T05:44:33.399Z,58042.53
2024-01-22T05:47:00.112Z,58007.47
2024-01-22T05:49:43.309Z,58005.41
2024-01-22T05:52:17.437Z,58036.34
2024-01-22T05:54:50.346Z,58005.41
2024-01-22T05:57:17.299Z,58026.03
2024-01-22T05:59:54.473Z,58040.47
2024-01-22T06:02:30.046Z,58009.53
2024-01-22T06:04:57.864Z,57999.22
2024-01-22T06:07:25.819Z,58001.28
2024-01-22T06:10:08.917Z,57997.16
2024-01-22T06:12:45.395Z,58011.59
2024-01-22T06:15:17.473Z,58017.78
2024-01-22T06:17:44.345Z,57993.03
2024-01-22T06:20:13.639Z,57970.31
2024-01-22T06:22:41.075Z,58001.28
2024-01-22T06:25:11.358Z,58011.59
2024-01-22T06:27:39.440Z,58003.34
2024-01-22T06:30:18.455Z,58038.41
2024-01-22T06:33:02.002Z,58059.06
2024-01-22T06:35:31.899Z,58013.66
2024-01-22T06:37:58.666Z,57990.97
2024-01-22T06:40:29.864Z,58038.41
2024-01-22T06:42:57.751Z,58067.31
2024-01-22T06:45:25.040Z,58013.66
2024-01-22T06:47:53.381Z,58040.47
2024-01-22T06:50:24.461Z,58030.16
2024-01-22T06:52:57.565Z,58030.16
2024-01-22T06:55:25.444Z,58015.72
2024-01-22T06:57:52.329Z,58034.28
2024-01-22T07:00:20.773Z,58019.84
2024-01-22T07:03:00.242Z,58013.66
2024-01-22T07:05:28.022Z,57976.50
2024-01-22T07:07:55.508Z,58034.28
2024-01-22T07:10:22.707Z,58057.00
2024-01-22T07:12:50.131Z,58032.22
2024-01-22T07:15:18.232Z,58009.53
2024-01-22T07:17:46.499Z,58048.75
2024-01-22T07:20:16.491Z,58017.78
2024-01-22T07:22:48.038Z,58042.53
2024-01-22T07:25:18.177Z,58019.84
2024-01-22T07:27:46.807Z,58017.78
2024-01-22T07:30:14.480Z,58030.16
2024-01-22T07:32:49.414Z,58019.84
2024-01-22T07:35:23.436Z,58005.41
2024-01-22T07:37:54.212Z,57997.16
2024-01-22T07:40:29.555Z,58038.41
2024-01-22T07:42:56.444Z,57988.91
2024-01-22T07:45:23.343Z,58061.13
2024-01-22T07:47:50.588Z,58005.41
2024-01-22T07:50:19.386Z,58009.53
2024-01-22T07:52:48.751Z,58015.72
2024-01-22T07:55:19.497Z,58023.97
2024-01-22T07:57:46.581Z,58030.16
2024-01-22T08:00:14.761Z,58017.78
2024-01-22T08:02:42.444Z,58011.59
2024-01-22T08:05:14.577Z,58003.34
2024-01-22T08:07:43.461Z,58028.09
2024-01-22T08:10:10.690Z,58009.53
2024-01-22T08:12:40.932Z,57990.97
2024-01-22T08:15:10.926Z,58003.34
2024-01-22T08:17:38.034Z,57997.16
2024-01-22T08:20:07.923Z,57978.56
2024-01-22T08:22:34.738Z,57972.38
2024-01-22T08:25:09.800Z,58001.28
2024-01-22T08:27:36.714Z,57997.16
2024-01-22T08:30:04.009Z,58005.41
2024-01-22T08:32:35.127Z,58015.72
2024-01-22T08:35:04.550Z,58005.41
2024-01-22T08:37:32.132Z,58019.84
2024-01-22T08:39:59.153Z,58017.78
2024-01-22T08:42:26.259Z,58048.75
2024-01-22T08:44:55.571Z,58034.28
2024-01-22T08:47:22.567Z,58003.34
2024-01-22T08:49:51.710Z,58015.72
2024-01-22T08:52:18.741Z,58040.47
2024-01-22T08:54:45.913Z,58034.28
2024-01-22T08:57:13.526Z,58017.78
2024-01-22T08:59:43.898Z,58015.72
2024-01-22T09:02:10.958Z,57997.16
2024-01-22T09:04:38.500Z,58026.03
2024-01-22T09:07:16.468Z,58046.66
2024-01-22T09:09:44.906Z,58044.59
2024-01-22T09:12:16.815Z,58013.66
2024-01-22T09:14:50.698Z,58042.53
2024-01-22T09:17:30.992Z,58003.34
2024-01-22T09:20:21.124Z,58015.72
2024-01-22T09:23:08.975Z,58057.00
2024-01-22T09:25:37.939Z,58061.13
2024-01-22T09:28:34.769Z,58042.53
2024-01-22T09:31:08.524Z,58017.78
2024-01-22T09:33:39.073Z,58023.97
2024-01-22T09:36:07.074Z,58028.09
2024-01-22T09:38:44.658Z,58026.03
2024-01-22T09:41:11.830Z,57984.78
2024-01-22T09:43:39.469Z,58015.72
2024-01-22T09:46:08.325Z,57976.50
2024-01-22T09:48:37.643Z,57997.16
2024-01-22T09:51:06.967Z,57962.06
2024-01-22T09:53:41.376Z,57947.63
2024-01-22T09:56:08.917Z,57976.50
2024-01-22T09:58:40.593Z,57933.19
2024-01-22T10:01:14.683Z,57929.06
2024-01-22T10:03:42.181Z,57960.00
2024-01-22T10:06:09.821Z,57951.75
2024-01-22T10:08:36.958Z,57951.75
2024-01-22T10:11:05.095Z,57918.75
2024-01-22T10:13:50.461Z,57902.22
2024-01-22T10:16:20.827Z,57931.13
2024-01-22T10:18:59.718Z,57887.78
2024-01-22T10:21:30.437Z,57860.97
2024-01-22T10:24:00.203Z,57834.16
2024-01-22T10:26:31.814Z,57803.19
2024-01-22T10:29:23.365Z,57797.00
2024-01-22T10:31:58.178Z,57776.38
2024-01-22T10:34:43.774Z,57768.13
2024-01-22T10:37:13.051Z,57706.22
2024-01-22T10:39:44.335Z,57636.06
2024-01-22T10:42:17.426Z,57658.75
2024-01-22T10:44:45.777Z,57609.25
2024-01-22T10:47:19.621Z,57582.44
2024-01-22T10:49:48.434Z,57631.94
2024-01-22T10:52:17.409Z,57578.31
2024-01-22T10:54:46.894Z,57592.75
2024-01-22T10:57:22.562Z,57658.75
2024-01-22T10:59:51.100Z,57710.34
2024-01-22T11:02:25.551Z,57695.91
2024-01-22T11:04:58.875Z,57737.16
2024-01-22T11:07:31.913Z,57708.28
2024-01-22T11:10:02.788Z,57693.84
2024-01-22T11:12:38.861Z,57710.34
2024-01-22T11:15:06.868Z,57704.16
2024-01-22T11:17:37.786Z,57737.16
2024-01-22T11:20:22.028Z,57749.56
2024-01-22T11:23:10.106Z,57708.28
2024-01-22T11:25:37.505Z,57730.97
2024-01-22T11:28:17.487Z,57745.41
2024-01-22T11:30:48.508Z,57720.66
2024-01-22T11:33:24.853Z,57681.47
2024-01-22T11:35:52.290Z,57677.34
2024-01-22T11:39:07.478Z,57648.44
2024-01-22T11:41:38.612Z,57598.94
2024-01-22T11:44:05.825Z,57545.28
2024-01-22T11:46:33.799Z,57584.50
2024-01-22T11:49:09.984Z,57559.72
2024-01-22T11:51:40.367Z,57530.84
2024-01-22T11:54:07.770Z,57557.66
2024-01-22T11:56:34.838Z,57572.13
2024-01-22T11:59:03.606Z,57584.50
2024-01-22T12:01:31.158Z,57574.19
2024-01-22T12:04:18.128Z,57565.91
2024-01-22T12:06:51.830Z,57553.53
2024-01-22T12:09:19.733Z,57555.59
2024-01-22T12:11:56.044Z,57543.22
2024-01-22T12:14:25.360Z,57483.41
2024-01-22T12:17:04.239Z,57456.56
2024-01-22T12:19:31.346Z,57440.06
2024-01-22T12:21:58.879Z,57448.31
2024-01-22T12:24:26.105Z,57456.56
2024-01-22T12:26:53.650Z,57419.44
2024-01-22T12:29:24.272Z,57421.50
2024-01-22T12:32:16.673Z,57427.69
2024-01-22T12:34:55.950Z,57435.94
2024-01-22T12:37:27.054Z,57415.31
2024-01-22T12:40:19.559Z,57413.25
2024-01-22T12:42:50.896Z,57425.63
2024-01-22T12:45:24.975Z,57396.75
2024-01-22T12:47:52.515Z,57388.50
2024-01-22T12:50:20.967Z,57361.69
2024-01-22T12:52:53.232Z,57372.00
2024-01-22T12:55:20.662Z,57376.13
2024-01-22T12:57:47.828Z,57369.94
2024-01-22T13:00:25.382Z,57334.84
2024-01-22T13:02:55.105Z,57326.59
2024-01-22T13:05:22.884Z,57336.91
2024-01-22T13:07:49.951Z,57338.97
2024-01-22T13:10:20.252Z,57334.84
2024-01-22T13:13:02.009Z,57341.03
2024-01-22T13:15:30.618Z,57308.03
2024-01-22T13:17:57.950Z,57322.47
2024-01-22T13:20:44.108Z,57299.78
2024-01-22T13:23:15.698Z,57343.09
2024-01-22T13:26:00.455Z,57312.16
2024-01-22T13:28:33.969Z,57285.34
2024-01-22T13:31:02.678Z,57295.66
2024-01-22T13:33:44.932Z,57308.03
2024-01-22T13:36:19.205Z,57301.84
2024-01-22T13:39:11.694Z,57264.72
2024-01-22T13:41:44.110Z,57301.84
2024-01-22T13:44:25.483Z,57297.72
2024-01-22T13:47:09.183Z,57305.97
2024-01-22T13:49:59.806Z,57272.97
2024-01-22T13:52:36.161Z,57303.91
2024-01-22T13:55:17.020Z,57303.91
2024-01-22T13:57:47.234Z,57299.78
2024-01-22T14:00:18.278Z,57285.34
2024-01-22T14:02:45.889Z,57316.28
2024-01-22T14:05:31.276Z,57316.28
2024-01-22T14:08:06.655Z,57320.41
2024-01-22T14:10:42.401Z,57289.47
2024-01-22T14:13:10.355Z,57293.59
2024-01-22T14:15:38.935Z,57297.72
2024-01-22T14:18:18.741Z,57264.72
2024-01-22T14:20:48.062Z,57258.53
2024-01-22T14:23:17.332Z,57266.78
2024-01-22T14:25:44.549Z,57287.41
2024-01-22T14:28:12.736Z,57270.91
2024-01-22T14:30:40.986Z,57258.53
2024-01-22T14:33:14.854Z,57246.16
2024-01-22T14:35:47.599Z,57248.22
2024-01-22T14:38:25.635Z,57266.78
2024-01-22T14:41:01.389Z,57258.53
2024-01-22T14:43:38.603Z,57297.72
2024-01-22T14:46:19.535Z,57270.91
2024-01-22T14:48:48.002Z,57264.72
2024-01-22T14:51:20.597Z,57279.16
2024-01-22T14:53:51.258Z,57289.47
2024-01-22T14:56:19.090Z,57293.59
2024-01-22T14:58:48.371Z,57303.91
2024-01-22T15:01:19.657Z,57279.16
2024-01-22T15:03:49.145Z,57272.97
2024-01-22T15:06:17.703Z,57246.16
2024-01-22T15:08:46.726Z,57256.47
2024-01-22T15:11:19.312Z,57244.09
2024-01-22T15:13:51.350Z,57264.72
2024-01-22T15:16:20.390Z,57237.91
2024-01-22T15:18:47.654Z,57254.41
2024-01-22T15:21:15.005Z,57254.41
2024-01-22T15:23:41.992Z,57225.53
2024-01-22T15:26:14.750Z,57254.41
2024-01-22T15:28:47.324Z,57281.22
2024-01-22T15:31:20.537Z,57250.28
2024-01-22T15:33:48.099Z,57260.59
2024-01-22T15:36:18.320Z,57254.41
2024-01-22T15:38:57.612Z,57233.78
2024-01-22T15:41:27.269Z,57256.47
2024-01-22T15:43:57.540Z,57252.34
2024-01-22T15:46:45.138Z,57250.28
2024-01-22T15:49:15.420Z,57258.53
2024-01-22T15:51:43.109Z,57260.59
2024-01-22T15:54:11.752Z,57266.78
2024-01-22T15:56:48.264Z,57237.91
2024-01-22T15:59:15.560Z,57237.91
2024-01-22T16:01:44.597Z,57254.41
2024-01-22T16:04:16.828Z,57268.84
2024-01-22T16:06:50.371Z,57289.47
2024-01-22T16:09:27.711Z,57277.09
2024-01-22T16:11:57.024Z,57287.41
2024-01-22T16:14:27.816Z,57256.47
2024-01-22T16:16:54.842Z,57268.84
2024-01-22T16:19:26.827Z,57270.91
2024-01-22T16:22:02.409Z,57270.91
2024-01-22T16:24:29.505Z,57254.41
2024-01-22T16:26:58.662Z,57283.28
2024-01-22T16:29:25.561Z,57262.66
2024-01-22T16:31:52.313Z,57258.53
2024-01-22T16:34:20.562Z,57262.66
2024-01-22T16:36:49.406Z,57268.84
2024-01-22T16:39:17.555Z,57256.47
2024-01-22T16:41:50.677Z,57279.16
2024-01-22T16:44:22.208Z,57295.66
2024-01-22T16:46:51.990Z,57262.66
2024-01-22T16:49:30.056Z,57256.47
2024-01-22T16:51:56.841Z,57277.09
2024-01-22T16:54:23.803Z,57272.97
2024-01-22T16:57:02.827Z,57281.22
2024-01-22T16:59:45.414Z,57279.16
2024-01-22T17:02:16.500Z,57312.16
2024-01-22T17:04:49.665Z,57279.16
2024-01-22T17:07:22.053Z,57305.97
2024-01-22T17:10:04.400Z,57281.22
2024-01-22T17:12:32.109Z,57279.16
2024-01-22T17:15:32.911Z,57279.16
2024-01-22T17:18:00.585Z,57270.91
2024-01-22T17:20:37.293Z,57295.66
2024-01-22T17:23:08.117Z,57283.28
2024-01-22T17:25:42.909Z,57285.34
2024-01-22T17:28:13.988Z,57289.47
2024-01-22T17:30:41.134Z,57305.97
2024-01-22T17:33:20.868Z,57295.66
2024-01-22T17:35:54.251Z,57293.59
2024-01-22T17:38:21.602Z,57291.53
2024-01-22T17:40:48.920Z,57328.66
2024-01-22T17:43:58.118Z,57291.53
2024-01-22T17:49:29.260Z,57310.09
2024-01-22T17:52:08.480Z,57308.03
2024-01-22T17:55:06.232Z,57353.44
2024-01-22T17:57:46.838Z,57345.16
2024-01-22T18:00:15.105Z,57332.78
2024-01-22T18:02:42.069Z,57341.03
2024-01-22T18:05:09.907Z,57351.38
2024-01-22T18:07:45.032Z,57367.88
2024-01-22T18:10:17.705Z,57341.03
2024-01-22T18:12:51.027Z,57328.66
2024-01-22T18:15:18.002Z,57324.53
2024-01-22T18:17:49.047Z,57347.25
2024-01-22T18:20:16.114Z,57341.03
2024-01-22T18:23:01.599Z,57357.56
2024-01-22T18:25:28.765Z,57336.91
2024-01-22T18:27:56.773Z,57351.38
2024-01-22T18:30:23.763Z,57349.28
2024-01-22T18:32:55.847Z,57330.72
2024-01-22T18:35:27.057Z,57378.19
2024-01-22T18:37:54.358Z,57367.88
2024-01-22T18:40:21.357Z,57369.94
2024-01-22T18:42:54.392Z,57361.69
2024-01-22T18:45:24.158Z,57363.75
2024-01-22T18:47:51.529Z,57338.97
2024-01-22T18:50:21.627Z,57400.88
2024-01-22T18:52:48.467Z,57417.38
2024-01-22T18:55:16.766Z,57419.44
2024-01-22T18:57:53.830Z,57456.56
2024-01-22T19:00:22.148Z,57468.97
2024-01-22T19:02:50.276Z,57438.00
2024-01-22T19:05:17.994Z,57415.31
2024-01-22T19:07:49.209Z,57398.81
2024-01-22T19:10:21.568Z,57394.69
2024-01-22T19:12:49.606Z,57386.44
2024-01-22T19:15:20.072Z,57384.38
2024-01-22T19:17:49.151Z,57361.69
2024-01-22T19:20:16.415Z,57361.69
2024-01-22T19:22:43.405Z,57374.06
2024-01-22T19:25:17.038Z,57382.31
2024-01-22T19:27:51.871Z,57367.88
2024-01-22T19:30:22.920Z,57380.25
2024-01-22T19:32:57.578Z,57357.56
2024-01-22T19:35:27.874Z,57303.91
2024-01-22T19:37:54.695Z,57334.84
2024-01-22T19:40:22.753Z,57336.91
2024-01-22T19:42:52.018Z,57328.66
2024-01-22T19:45:23.658Z,57303.91
2024-01-22T19:47:50.734Z,57347.25
2024-01-22T19:50:18.667Z,57336.91
2024-01-22T19:52:50.301Z,57322.47
2024-01-22T19:55:26.411Z,57322.47
2024-01-22T19:57:58.888Z,57338.97
2024-01-22T20:00:35.436Z,57349.28
2024-01-22T20:03:06.441Z,57361.69
2024-01-22T20:05:36.509Z,57349.28
2024-01-22T20:08:07.997Z,57405.00
2024-01-22T20:10:50.764Z,57378.19
2024-01-22T20:13:18.058Z,57355.50
2024-01-22T20:15:44.807Z,57369.94
2024-01-22T20:18:14.942Z,57369.94
2024-01-22T20:20:44.991Z,57390.56
2024-01-22T20:23:12.521Z,57374.06
2024-01-22T20:25:47.642Z,57407.06
2024-01-22T20:28:14.500Z,57390.56
2024-01-22T20:30:45.271Z,57413.25
2024-01-22T20:33:13.518Z,57411.19
2024-01-22T20:35:47.939Z,57429.75
2024-01-22T20:38:20.339Z,57419.44
2024-01-22T20:40:48.526Z,57431.81
2024-01-22T20:43:20.436Z,57440.06
2024-01-22T20:45:52.860Z,57454.50
2024-01-22T20:48:20.699Z,57442.13
2024-01-22T20:50:50.565Z,57473.09
2024-01-22T20:53:20.500Z,57468.97
2024-01-22T20:55:48.699Z,57504.03
2024-01-22T20:58:18.263Z,57504.03
2024-01-22T21:00:46.384Z,57489.59
2024-01-22T21:03:14.002Z,57489.59
2024-01-22T21:05:41.224Z,57497.84
2024-01-22T21:08:08.738Z,57506.09
2024-01-22T21:10:42.965Z,57518.47
2024-01-22T21:13:22.949Z,57539.09
2024-01-22T21:16:01.208Z,57506.09
2024-01-22T21:18:32.305Z,57518.47
2024-01-22T21:21:14.506Z,57495.78
2024-01-22T21:23:42.630Z,57504.03
2024-01-22T21:26:16.359Z,57539.09
2024-01-22T21:28:54.961Z,57541.16
2024-01-22T21:31:23.503Z,57541.16
2024-01-22T21:33:50.898Z,57541.16
2024-01-22T21:36:21.913Z,57518.47
2024-01-22T21:38:59.291Z,57518.47
2024-01-22T21:41:26.597Z,57508.16
2024-01-22T21:43:53.665Z,57491.66
2024-01-22T21:46:23.166Z,57510.22
2024-01-22T21:48:54.090Z,57518.47
2024-01-22T21:51:21.363Z,57514.34
2024-01-22T21:53:51.559Z,57522.59
2024-01-22T21:56:18.514Z,57506.09
2024-01-22T21:58:48.223Z,57524.66
2024-01-22T22:01:24.405Z,57516.41
2024-01-22T22:03:51.761Z,57526.72
2024-01-22T22:06:34.126Z,57537.03
2024-01-22T22:09:03.253Z,57539.09
2024-01-22T22:11:40.652Z,57530.84
2024-01-22T22:14:14.391Z,57541.16
2024-01-22T22:16:51.460Z,57530.84
2024-01-22T22:19:28.992Z,57522.59
2024-01-22T22:21:59.846Z,57495.78
2024-01-22T22:24:26.744Z,57516.41
2024-01-22T22:29:37.898Z,57506.09
2024-01-22T22:32:12.106Z,57481.34
2024-01-22T22:35:04.453Z,57466.91
2024-01-22T22:37:41.766Z,57466.91
2024-01-22T22:40:12.845Z,57458.63
2024-01-22T22:42:59.557Z,57454.50
2024-01-22T22:45:42.074Z,57425.63
2024-01-22T22:48:13.407Z,57429.75
2024-01-22T22:50:45.709Z,57419.44
2024-01-22T22:53:20.593Z,57398.81
2024-01-22T22:55:49.680Z,57396.75
2024-01-22T22:58:16.987Z,57396.75
2024-01-22T23:00:52.346Z,57402.94
2024-01-22T23:03:24.883Z,57384.38
2024-01-22T23:06:07.141Z,57394.69
2024-01-22T23:08:59.245Z,57394.69
2024-01-22T23:11:30.140Z,57415.31
2024-01-22T23:14:00.213Z,57409.13
2024-01-22T23:16:41.719Z,57402.94
2024-01-22T23:19:08.816Z,57411.19
2024-01-22T23:21:41.503Z,57413.25
2024-01-22T23:24:11.233Z,57442.13
2024-01-22T23:26:38.548Z,57435.94
2024-01-22T23:29:19.446Z,57419.44
2024-01-22T23:31:54.241Z,57450.38
2024-01-22T23:34:26.069Z,57438.00
2024-01-22T23:36:57.885Z,57456.56
2024-01-22T23:39:27.184Z,57435.94
2024-01-22T23:41:54.322Z,57466.91
2024-01-22T23:44:27.687Z,57460.69
2024-01-22T23:46:55.905Z,57458.63
2024-01-22T23:49:22.979Z,57473.09
2024-01-22T23:51:51.250Z,57475.16
2024-01-22T23:54:19.252Z,57473.09
2024-01-22T23:56:48.738Z,57495.78
2024-01-22T23:59:18.674Z,57501.97
